sensor_id;sensor_type;location;lat;lon;timestamp;temperature;humidity
8709;DHT22;4391;48.678;9.280;2023-08-17T00:02:04;18.20;99.90
8709;DHT22;4391;48.678;9.280;2023-08-17T00:04:31;18.30;99.90
8709;DHT22;4391;48.678;9.280;2023-08-17T00:06:58;18.20;99.90
8709;DHT22;4391;48.678;9.280;2023-08-17T00:09:25;18.20;99.90
8709;DHT22;4391;48.678;9.280;2023-08-17T00:11:52;18.20;99.90
8709;DHT22;4391;48.678;9.280;2023-08-17T00:14:21;18.30;99.90
8709;DHT22;4391;48.678;9.280;2023-08-17T00:16:51;18.30;99.90
8709;DHT22;4391;48.678;9.280;2023-08-17T00:19:18;18.30;99.90
8709;DHT22;4391;48.678;9.280;2023-08-17T00:21:45;18.30;99.90
8709;DHT22;4391;48.678;9.280;2023-08-17T00:24:12;18.30;99.90
8709;DHT22;4391;48.678;9.280;2023-08-17T00:26:39;18.30;99.90
8709;DHT22;4391;48.678;9.280;2023-08-17T00:29:06;18.30;99.90
8709;DHT22;4391;48.678;9.280;2023-08-17T00:31:34;18.50;99.90
8709;DHT22;4391;48.678;9.280;2023-08-17T00:34:00;18.50;99.90
8709;DHT22;4391;48.678;9.280;2023-08-17T00:36:27;18.50;99.90
8709;DHT22;4391;48.678;9.280;2023-08-17T00:38:54;18.50;99.90
8709;DHT22;4391;48.678;9.280;2023-08-17T00:41:21;18.50;99.90
8709;DHT22;4391;48.678;9.280;2023-08-17T00:43:48;18.60;99.90
8709;DHT22;4391;48.678;9.280;2023-08-17T00:46:15;18.60;99.90
8709;DHT22;4391;48.678;9.280;2023-08-17T00:48:43;18.60;99.90
8709;DHT22;4391;48.678;9.280;2023-08-17T00:51:10;18.70;99.90
8709;DHT22;4391;48.678;9.280;2023-08-17T00:53:37;18.70;99.90
8709;DHT22;4391;48.678;9.280;2023-08-17T00:56:04;18.70;99.90
8709;DHT22;4391;48.678;9.280;2023-08-17T00:58:31;18.80;99.90
8709;DHT22;4391;48.678;9.280;2023-08-17T01:00:58;18.80;99.90
8709;DHT22;4391;48.678;9.280;2023-08-17T01:03:28;18.80;99.90
8709;DHT22;4391;48.678;9.280;2023-08-17T01:05:56;18.80;99.90
8709;DHT22;4391;48.678;9.280;2023-08-17T01:08:23;18.80;99.90
8709;DHT22;4391;48.678;9.280;2023-08-17T01:10:55;18.90;99.90
8709;DHT22;4391;48.678;9.280;2023-08-17T01:13:28;18.90;99.90
8709;DHT22;4391;48.678;9.280;2023-08-17T01:15:58;19.00;99.90
8709;DHT22;4391;48.678;9.280;2023-08-17T01:18:29;19.00;99.90
8709;DHT22;4391;48.678;9.280;2023-08-17T01:20:58;19.00;99.90
8709;DHT22;4391;48.678;9.280;2023-08-17T01:23:28;19.10;99.90
8709;DHT22;4391;48.678;9.280;2023-08-17T01:25:55;19.00;99.90
8709;DHT22;4391;48.678;9.280;2023-08-17T01:28:23;19.00;99.90
8709;DHT22;4391;48.678;9.280;2023-08-17T01:30:55;18.90;99.90
8709;DHT22;4391;48.678;9.280;2023-08-17T01:33:28;18.90;99.90
8709;DHT22;4391;48.678;9.280;2023-08-17T01:36:04;18.80;99.90
8709;DHT22;4391;48.678;9.280;2023-08-17T01:38:34;18.80;99.90
8709;DHT22;4391;48.678;9.280;2023-08-17T01:41:04;18.70;99.90
8709;DHT22;4391;48.678;9.280;2023-08-17T01:43:31;18.60;99.90
8709;DHT22;4391;48.678;9.280;2023-08-17T01:45:59;18.60;99.90
8709;DHT22;4391;48.678;9.280;2023-08-17T01:48:26;18.60;99.90
8709;DHT22;4391;48.678;9.280;2023-08-17T01:50:53;18.60;99.90
8709;DHT22;4391;48.678;9.280;2023-08-17T01:53:20;18.60;99.90
8709;DHT22;4391;48.678;9.280;2023-08-17T01:55:48;18.60;99.90
8709;DHT22;4391;48.678;9.280;2023-08-17T01:58:17;18.50;99.90
8709;DHT22;4391;48.678;9.280;2023-08-17T02:00:44;18.40;99.90
8709;DHT22;4391;48.678;9.280;2023-08-17T02:03:11;18.30;99.90
8709;DHT22;4391;48.678;9.280;2023-08-17T02:05:38;18.20;99.90
8709;DHT22;4391;48.678;9.280;2023-08-17T02:08:05;18.30;99.90
8709;DHT22;4391;48.678;9.280;2023-08-17T02:10:32;18.30;99.90
8709;DHT22;4391;48.678;9.280;2023-08-17T02:13:00;18.30;99.90
8709;DHT22;4391;48.678;9.280;2023-08-17T02:15:27;18.30;99.90
8709;DHT22;4391;48.678;9.280;2023-08-17T02:17:54;18.30;99.90
8709;DHT22;4391;48.678;9.280;2023-08-17T02:20:21;18.30;99.90
8709;DHT22;4391;48.678;9.280;2023-08-17T02:22:49;18.30;99.90
8709;DHT22;4391;48.678;9.280;2023-08-17T02:25:16;18.30;99.90
8709;DHT22;4391;48.678;9.280;2023-08-17T02:27:42;18.30;99.90
8709;DHT22;4391;48.678;9.280;2023-08-17T02:30:12;18.30;99.90
8709;DHT22;4391;48.678;9.280;2023-08-17T02:32:39;18.40;99.90
8709;DHT22;4391;48.678;9.280;2023-08-17T02:35:07;18.40;99.90
8709;DHT22;4391;48.678;9.280;2023-08-17T02:37:34;18.50;99.90
8709;DHT22;4391;48.678;9.280;2023-08-17T02:40:01;18.50;99.90
8709;DHT22;4391;48.678;9.280;2023-08-17T02:42:29;18.50;99.90
8709;DHT22;4391;48.678;9.280;2023-08-17T02:44:56;18.60;99.90
8709;DHT22;4391;48.678;9.280;2023-08-17T02:47:24;18.50;99.90
8709;DHT22;4391;48.678;9.280;2023-08-17T02:49:51;18.50;99.90
8709;DHT22;4391;48.678;9.280;2023-08-17T02:52:18;18.60;99.90
8709;DHT22;4391;48.678;9.280;2023-08-17T02:54:45;18.70;99.90
8709;DHT22;4391;48.678;9.280;2023-08-17T02:57:13;18.70;99.90
8709;DHT22;4391;48.678;9.280;2023-08-17T02:59:39;18.90;99.90
8709;DHT22;4391;48.678;9.280;2023-08-17T03:02:06;18.80;99.90
8709;DHT22;4391;48.678;9.280;2023-08-17T03:04:34;18.80;99.90
8709;DHT22;4391;48.678;9.280;2023-08-17T03:07:01;18.80;99.90
8709;DHT22;4391;48.678;9.280;2023-08-17T03:09:28;18.90;99.90
8709;DHT22;4391;48.678;9.280;2023-08-17T03:11:55;18.90;99.90
8709;DHT22;4391;48.678;9.280;2023-08-17T03:14:21;18.80;99.90
8709;DHT22;4391;48.678;9.280;2023-08-17T03:16:48;18.80;99.90
8709;DHT22;4391;48.678;9.280;2023-08-17T03:19:15;18.80;99.90
8709;DHT22;4391;48.678;9.280;2023-08-17T03:21:44;18.90;99.90
8709;DHT22;4391;48.678;9.280;2023-08-17T03:24:11;18.80;99.90
8709;DHT22;4391;48.678;9.280;2023-08-17T03:26:37;18.80;99.90
8709;DHT22;4391;48.678;9.280;2023-08-17T03:29:04;18.90;99.90
8709;DHT22;4391;48.678;9.280;2023-08-17T03:31:31;18.90;99.90
8709;DHT22;4391;48.678;9.280;2023-08-17T03:33:58;19.00;99.90
8709;DHT22;4391;48.678;9.280;2023-08-17T03:36:25;19.00;99.90
8709;DHT22;4391;48.678;9.280;2023-08-17T03:38:54;19.00;99.90
8709;DHT22;4391;48.678;9.280;2023-08-17T03:41:21;19.00;99.90
8709;DHT22;4391;48.678;9.280;2023-08-17T03:43:49;19.10;99.90
8709;DHT22;4391;48.678;9.280;2023-08-17T03:46:15;19.00;99.90
8709;DHT22;4391;48.678;9.280;2023-08-17T03:48:42;19.10;99.90
8709;DHT22;4391;48.678;9.280;2023-08-17T03:51:09;19.10;99.90
8709;DHT22;4391;48.678;9.280;2023-08-17T03:53:36;19.10;99.90
8709;DHT22;4391;48.678;9.280;2023-08-17T03:56:04;19.10;99.90
8709;DHT22;4391;48.678;9.280;2023-08-17T03:58:31;19.10;99.90
8709;DHT22;4391;48.678;9.280;2023-08-17T04:01:00;19.10;99.90
8709;DHT22;4391;48.678;9.280;2023-08-17T04:03:27;19.10;99.90
8709;DHT22;4391;48.678;9.280;2023-08-17T04:05:54;19.10;99.90
8709;DHT22;4391;48.678;9.280;2023-08-17T04:08:21;19.10;99.90
8709;DHT22;4391;48.678;9.280;2023-08-17T04:10:48;19.10;99.90
8709;DHT22;4391;48.678;9.280;2023-08-17T04:13:16;19.10;99.90
8709;DHT22;4391;48.678;9.280;2023-08-17T04:15:43;19.10;99.90
8709;DHT22;4391;48.678;9.280;2023-08-17T04:18:09;19.10;99.90
8709;DHT22;4391;48.678;9.280;2023-08-17T04:20:36;19.10;99.90
8709;DHT22;4391;48.678;9.280;2023-08-17T04:23:03;19.20;99.90
8709;DHT22;4391;48.678;9.280;2023-08-17T04:25:30;19.20;99.90
8709;DHT22;4391;48.678;9.280;2023-08-17T04:27:57;19.20;99.90
8709;DHT22;4391;48.678;9.280;2023-08-17T04:30:25;19.20;99.90
8709;DHT22;4391;48.678;9.280;2023-08-17T04:32:52;19.20;99.90
8709;DHT22;4391;48.678;9.280;2023-08-17T04:35:19;19.10;99.90
8709;DHT22;4391;48.678;9.280;2023-08-17T04:37:45;19.20;99.90
8709;DHT22;4391;48.678;9.280;2023-08-17T04:40:13;19.20;99.90
8709;DHT22;4391;48.678;9.280;2023-08-17T04:42:40;19.20;99.90
8709;DHT22;4391;48.678;9.280;2023-08-17T04:45:07;19.20;99.90
8709;DHT22;4391;48.678;9.280;2023-08-17T04:47:36;19.30;99.90
8709;DHT22;4391;48.678;9.280;2023-08-17T04:50:04;19.30;99.90
8709;DHT22;4391;48.678;9.280;2023-08-17T04:52:31;19.30;99.90
8709;DHT22;4391;48.678;9.280;2023-08-17T04:54:58;19.40;99.90
8709;DHT22;4391;48.678;9.280;2023-08-17T04:57:25;19.40;99.90
8709;DHT22;4391;48.678;9.280;2023-08-17T04:59:53;19.40;99.90
8709;DHT22;4391;48.678;9.280;2023-08-17T05:02:20;19.40;99.90
8709;DHT22;4391;48.678;9.280;2023-08-17T05:04:48;19.50;99.90
8709;DHT22;4391;48.678;9.280;2023-08-17T05:07:15;19.50;99.90
8709;DHT22;4391;48.678;9.280;2023-08-17T05:09:42;19.50;99.90
8709;DHT22;4391;48.678;9.280;2023-08-17T05:12:09;19.60;99.90
8709;DHT22;4391;48.678;9.280;2023-08-17T05:14:35;19.60;99.90
8709;DHT22;4391;48.678;9.280;2023-08-17T05:17:02;19.50;99.90
8709;DHT22;4391;48.678;9.280;2023-08-17T05:19:29;19.60;99.90
8709;DHT22;4391;48.678;9.280;2023-08-17T05:21:58;19.60;99.90
8709;DHT22;4391;48.678;9.280;2023-08-17T05:24:25;19.60;99.90
8709;DHT22;4391;48.678;9.280;2023-08-17T05:26:53;19.70;99.90
8709;DHT22;4391;48.678;9.280;2023-08-17T05:29:20;19.70;99.90
8709;DHT22;4391;48.678;9.280;2023-08-17T05:31:47;19.70;99.90
8709;DHT22;4391;48.678;9.280;2023-08-17T05:34:13;19.70;99.90
8709;DHT22;4391;48.678;9.280;2023-08-17T05:36:40;19.80;99.90
8709;DHT22;4391;48.678;9.280;2023-08-17T05:39:09;19.90;99.90
8709;DHT22;4391;48.678;9.280;2023-08-17T05:41:36;19.90;99.90
8709;DHT22;4391;48.678;9.280;2023-08-17T05:44:03;19.90;99.90
8709;DHT22;4391;48.678;9.280;2023-08-17T05:46:32;20.00;99.90
8709;DHT22;4391;48.678;9.280;2023-08-17T05:48:59;20.00;99.90
8709;DHT22;4391;48.678;9.280;2023-08-17T05:51:26;20.10;99.90
8709;DHT22;4391;48.678;9.280;2023-08-17T05:53:53;20.20;99.90
8709;DHT22;4391;48.678;9.280;2023-08-17T05:56:21;20.20;99.90
8709;DHT22;4391;48.678;9.280;2023-08-17T05:58:48;20.10;99.90
8709;DHT22;4391;48.678;9.280;2023-08-17T06:01:15;20.00;99.90
8709;DHT22;4391;48.678;9.280;2023-08-17T06:03:42;20.00;99.90
8709;DHT22;4391;48.678;9.280;2023-08-17T06:06:09;20.00;99.90
8709;DHT22;4391;48.678;9.280;2023-08-17T06:08:36;20.00;99.90
8709;DHT22;4391;48.678;9.280;2023-08-17T06:11:03;20.00;99.90
8709;DHT22;4391;48.678;9.280;2023-08-17T06:13:31;20.00;99.90
8709;DHT22;4391;48.678;9.280;2023-08-17T06:15:58;20.00;99.90
8709;DHT22;4391;48.678;9.280;2023-08-17T06:18:24;20.00;99.90
8709;DHT22;4391;48.678;9.280;2023-08-17T06:20:51;20.00;99.90
8709;DHT22;4391;48.678;9.280;2023-08-17T06:23:19;20.00;99.90
8709;DHT22;4391;48.678;9.280;2023-08-17T06:25:46;20.00;99.90
8709;DHT22;4391;48.678;9.280;2023-08-17T06:28:13;19.90;99.90
8709;DHT22;4391;48.678;9.280;2023-08-17T06:30:41;19.90;99.90
8709;DHT22;4391;48.678;9.280;2023-08-17T06:33:08;19.90;99.90
8709;DHT22;4391;48.678;9.280;2023-08-17T06:35:34;19.90;99.90
8709;DHT22;4391;48.678;9.280;2023-08-17T06:38:01;19.90;99.90
8709;DHT22;4391;48.678;9.280;2023-08-17T06:40:28;20.00;99.90
8709;DHT22;4391;48.678;9.280;2023-08-17T06:42:55;20.00;99.90
8709;DHT22;4391;48.678;9.280;2023-08-17T06:45:21;20.00;99.90
8709;DHT22;4391;48.678;9.280;2023-08-17T06:47:50;19.90;99.90
8709;DHT22;4391;48.678;9.280;2023-08-17T06:50:17;20.00;99.90
8709;DHT22;4391;48.678;9.280;2023-08-17T06:52:43;20.00;99.90
8709;DHT22;4391;48.678;9.280;2023-08-17T06:55:10;20.00;99.90
8709;DHT22;4391;48.678;9.280;2023-08-17T06:57:37;20.00;99.90
8709;DHT22;4391;48.678;9.280;2023-08-17T07:00:05;19.90;99.90
8709;DHT22;4391;48.678;9.280;2023-08-17T07:02:32;19.80;99.90
8709;DHT22;4391;48.678;9.280;2023-08-17T07:05:01;19.80;99.90
8709;DHT22;4391;48.678;9.280;2023-08-17T07:07:29;20.00;99.90
8709;DHT22;4391;48.678;9.280;2023-08-17T07:09:57;20.10;99.90
8709;DHT22;4391;48.678;9.280;2023-08-17T07:12:23;20.20;99.90
8709;DHT22;4391;48.678;9.280;2023-08-17T07:14:50;20.40;99.90
8709;DHT22;4391;48.678;9.280;2023-08-17T07:17:17;20.60;99.90
8709;DHT22;4391;48.678;9.280;2023-08-17T07:19:44;20.60;99.90
8709;DHT22;4391;48.678;9.280;2023-08-17T07:22:12;20.70;99.90
8709;DHT22;4391;48.678;9.280;2023-08-17T07:24:39;20.80;99.90
8709;DHT22;4391;48.678;9.280;2023-08-17T07:27:05;21.00;99.90
8709;DHT22;4391;48.678;9.280;2023-08-17T07:29:32;21.20;99.90
8709;DHT22;4391;48.678;9.280;2023-08-17T07:31:59;21.20;99.90
8709;DHT22;4391;48.678;9.280;2023-08-17T07:34:27;21.10;99.90
8709;DHT22;4391;48.678;9.280;2023-08-17T07:36:54;21.20;99.90
8709;DHT22;4391;48.678;9.280;2023-08-17T07:39:22;21.40;89.70
8709;DHT22;4391;48.678;9.280;2023-08-17T07:41:49;21.30;67.70
8709;DHT22;4391;48.678;9.280;2023-08-17T07:44:16;21.40;83.30
8709;DHT22;4391;48.678;9.280;2023-08-17T07:46:43;21.30;93.60
8709;DHT22;4391;48.678;9.280;2023-08-17T07:49:09;21.30;97.40
8709;DHT22;4391;48.678;9.280;2023-08-17T07:51:36;21.40;90.00
8709;DHT22;4391;48.678;9.280;2023-08-17T07:54:03;21.40;99.90
8709;DHT22;4391;48.678;9.280;2023-08-17T07:56:31;21.50;65.60
8709;DHT22;4391;48.678;9.280;2023-08-17T07:58:58;21.60;49.60
8709;DHT22;4391;48.678;9.280;2023-08-17T08:01:25;21.70;83.60
8709;DHT22;4391;48.678;9.280;2023-08-17T08:03:52;21.90;61.20
8709;DHT22;4391;48.678;9.280;2023-08-17T08:06:19;22.10;40.30
8709;DHT22;4391;48.678;9.280;2023-08-17T08:08:46;22.20;1.00
8709;DHT22;4391;48.678;9.280;2023-08-17T08:11:12;22.10;1.00
8709;DHT22;4391;48.678;9.280;2023-08-17T08:13:41;22.00;17.30
8709;DHT22;4391;48.678;9.280;2023-08-17T08:16:08;22.00;19.40
8709;DHT22;4391;48.678;9.280;2023-08-17T08:18:35;22.00;36.40
8709;DHT22;4391;48.678;9.280;2023-08-17T08:21:01;22.10;35.00
8709;DHT22;4391;48.678;9.280;2023-08-17T08:23:28;22.30;32.10
8709;DHT22;4391;48.678;9.280;2023-08-17T08:25:55;22.60;1.00
8709;DHT22;4391;48.678;9.280;2023-08-17T08:28:23;22.90;1.00
8709;DHT22;4391;48.678;9.280;2023-08-17T08:30:52;23.20;1.00
8709;DHT22;4391;48.678;9.280;2023-08-17T08:33:19;23.40;1.00
8709;DHT22;4391;48.678;9.280;2023-08-17T08:35:46;23.60;1.00
8709;DHT22;4391;48.678;9.280;2023-08-17T08:38:14;23.80;99.90
8709;DHT22;4391;48.678;9.280;2023-08-17T08:40:42;23.80;99.90
8709;DHT22;4391;48.678;9.280;2023-08-17T08:43:10;24.00;1.00
8709;DHT22;4391;48.678;9.280;2023-08-17T08:45:37;24.00;99.90
8709;DHT22;4391;48.678;9.280;2023-08-17T08:48:08;24.30;1.00
8709;DHT22;4391;48.678;9.280;2023-08-17T08:50:36;24.00;1.00
8709;DHT22;4391;48.678;9.280;2023-08-17T08:53:11;23.90;99.90
8709;DHT22;4391;48.678;9.280;2023-08-17T08:55:46;24.10;99.90
8709;DHT22;4391;48.678;9.280;2023-08-17T08:58:15;24.20;99.90
8709;DHT22;4391;48.678;9.280;2023-08-17T09:00:45;24.40;99.90
8709;DHT22;4391;48.678;9.280;2023-08-17T09:03:15;24.60;76.30
8709;DHT22;4391;48.678;9.280;2023-08-17T09:05:45;24.80;1.00
8709;DHT22;4391;48.678;9.280;2023-08-17T09:08:14;24.90;99.90
8709;DHT22;4391;48.678;9.280;2023-08-17T09:10:42;25.40;1.00
8709;DHT22;4391;48.678;9.280;2023-08-17T09:13:10;25.50;99.90
8709;DHT22;4391;48.678;9.280;2023-08-17T09:15:36;25.50;99.90
8709;DHT22;4391;48.678;9.280;2023-08-17T09:18:05;25.90;99.90
8709;DHT22;4391;48.678;9.280;2023-08-17T09:20:38;26.30;99.90
8709;DHT22;4391;48.678;9.280;2023-08-17T09:23:10;26.60;51.40
8709;DHT22;4391;48.678;9.280;2023-08-17T09:25:39;26.70;1.00
8709;DHT22;4391;48.678;9.280;2023-08-17T09:28:10;26.90;1.00
8709;DHT22;4391;48.678;9.280;2023-08-17T09:30:52;27.10;1.00
8709;DHT22;4391;48.678;9.280;2023-08-17T09:33:20;27.70;99.90
8709;DHT22;4391;48.678;9.280;2023-08-17T09:35:49;27.90;1.00
8709;DHT22;4391;48.678;9.280;2023-08-17T09:38:16;28.10;60.60
8709;DHT22;4391;48.678;9.280;2023-08-17T09:40:45;28.70;1.00
8709;DHT22;4391;48.678;9.280;2023-08-17T09:43:14;29.30;1.00
8709;DHT22;4391;48.678;9.280;2023-08-17T09:45:42;29.60;1.00
8709;DHT22;4391;48.678;9.280;2023-08-17T09:48:10;30.30;1.00
8709;DHT22;4391;48.678;9.280;2023-08-17T09:50:36;30.70;99.90
8709;DHT22;4391;48.678;9.280;2023-08-17T09:53:05;30.90;99.90
8709;DHT22;4391;48.678;9.280;2023-08-17T09:55:32;30.90;99.90
8709;DHT22;4391;48.678;9.280;2023-08-17T09:58:00;30.90;99.90
8709;DHT22;4391;48.678;9.280;2023-08-17T10:00:27;31.30;99.90
8709;DHT22;4391;48.678;9.280;2023-08-17T10:02:55;31.90;99.90
8709;DHT22;4391;48.678;9.280;2023-08-17T10:05:23;31.60;99.90
8709;DHT22;4391;48.678;9.280;2023-08-17T10:07:54;31.70;99.90
8709;DHT22;4391;48.678;9.280;2023-08-17T10:10:26;31.50;99.90
8709;DHT22;4391;48.678;9.280;2023-08-17T10:12:59;31.50;99.90
8709;DHT22;4391;48.678;9.280;2023-08-17T10:15:30;31.50;99.90
8709;DHT22;4391;48.678;9.280;2023-08-17T10:18:02;31.50;99.90
8709;DHT22;4391;48.678;9.280;2023-08-17T10:20:34;31.90;99.90
8709;DHT22;4391;48.678;9.280;2023-08-17T10:23:07;32.80;99.90
8709;DHT22;4391;48.678;9.280;2023-08-17T10:25:36;33.00;99.90
8709;DHT22;4391;48.678;9.280;2023-08-17T10:28:04;33.20;99.90
8709;DHT22;4391;48.678;9.280;2023-08-17T10:30:32;34.10;99.90
8709;DHT22;4391;48.678;9.280;2023-08-17T10:33:00;34.50;99.90
8709;DHT22;4391;48.678;9.280;2023-08-17T10:35:29;35.30;99.90
8709;DHT22;4391;48.678;9.280;2023-08-17T10:37:57;35.90;99.90
8709;DHT22;4391;48.678;9.280;2023-08-17T10:40:28;35.00;99.90
8709;DHT22;4391;48.678;9.280;2023-08-17T10:42:56;35.00;99.90
8709;DHT22;4391;48.678;9.280;2023-08-17T10:45:27;34.30;99.90
8709;DHT22;4391;48.678;9.280;2023-08-17T10:48:25;33.50;99.90
8709;DHT22;4391;48.678;9.280;2023-08-17T10:51:04;33.90;99.90
8709;DHT22;4391;48.678;9.280;2023-08-17T10:53:35;34.40;99.90
8709;DHT22;4391;48.678;9.280;2023-08-17T10:56:07;34.40;99.90
8709;DHT22;4391;48.678;9.280;2023-08-17T10:58:35;34.60;99.90
8709;DHT22;4391;48.678;9.280;2023-08-17T11:01:02;35.30;99.90
8709;DHT22;4391;48.678;9.280;2023-08-17T11:03:29;36.30;99.90
8709;DHT22;4391;48.678;9.280;2023-08-17T11:05:56;36.60;99.90
8709;DHT22;4391;48.678;9.280;2023-08-17T11:08:28;36.40;99.90
8709;DHT22;4391;48.678;9.280;2023-08-17T11:11:01;36.30;99.90
8709;DHT22;4391;48.678;9.280;2023-08-17T11:13:30;36.20;99.90
8709;DHT22;4391;48.678;9.280;2023-08-17T11:16:00;36.90;99.90
8709;DHT22;4391;48.678;9.280;2023-08-17T11:18:27;36.80;99.90
8709;DHT22;4391;48.678;9.280;2023-08-17T11:20:54;35.80;99.90
8709;DHT22;4391;48.678;9.280;2023-08-17T11:23:22;35.70;99.90
8709;DHT22;4391;48.678;9.280;2023-08-17T11:25:52;36.20;99.90
8709;DHT22;4391;48.678;9.280;2023-08-17T11:28:19;37.00;99.90
8709;DHT22;4391;48.678;9.280;2023-08-17T11:30:52;37.00;99.90
8709;DHT22;4391;48.678;9.280;2023-08-17T11:33:25;37.20;99.90
8709;DHT22;4391;48.678;9.280;2023-08-17T11:35:54;37.50;99.90
8709;DHT22;4391;48.678;9.280;2023-08-17T11:38:21;38.20;99.90
8709;DHT22;4391;48.678;9.280;2023-08-17T11:40:48;38.90;99.90
8709;DHT22;4391;48.678;9.280;2023-08-17T11:43:15;39.80;99.90
8709;DHT22;4391;48.678;9.280;2023-08-17T11:45:42;39.90;99.90
8709;DHT22;4391;48.678;9.280;2023-08-17T11:48:09;40.00;99.90
8709;DHT22;4391;48.678;9.280;2023-08-17T11:50:38;39.60;99.90
8709;DHT22;4391;48.678;9.280;2023-08-17T11:53:05;40.20;99.90
8709;DHT22;4391;48.678;9.280;2023-08-17T11:55:32;39.80;99.90
8709;DHT22;4391;48.678;9.280;2023-08-17T11:57:58;39.10;99.90
8709;DHT22;4391;48.678;9.280;2023-08-17T12:00:25;37.60;99.90
8709;DHT22;4391;48.678;9.280;2023-08-17T12:02:52;36.10;99.90
8709;DHT22;4391;48.678;9.280;2023-08-17T12:05:20;34.80;99.90
8709;DHT22;4391;48.678;9.280;2023-08-17T12:07:50;33.70;99.90
8709;DHT22;4391;48.678;9.280;2023-08-17T12:10:17;32.60;99.90
8709;DHT22;4391;48.678;9.280;2023-08-17T12:12:46;31.90;99.90
8709;DHT22;4391;48.678;9.280;2023-08-17T12:15:13;31.30;99.90
8709;DHT22;4391;48.678;9.280;2023-08-17T12:17:45;30.70;99.90
8709;DHT22;4391;48.678;9.280;2023-08-17T12:20:16;30.50;99.90
8709;DHT22;4391;48.678;9.280;2023-08-17T12:22:45;30.30;99.90
8709;DHT22;4391;48.678;9.280;2023-08-17T12:25:13;30.00;99.90
8709;DHT22;4391;48.678;9.280;2023-08-17T12:27:40;29.70;99.90
8709;DHT22;4391;48.678;9.280;2023-08-17T12:30:23;29.40;99.90
8709;DHT22;4391;48.678;9.280;2023-08-17T12:32:50;29.00;99.90
8709;DHT22;4391;48.678;9.280;2023-08-17T12:35:17;28.70;99.90
8709;DHT22;4391;48.678;9.280;2023-08-17T12:37:44;28.60;99.90
8709;DHT22;4391;48.678;9.280;2023-08-17T12:40:12;28.50;99.90
8709;DHT22;4391;48.678;9.280;2023-08-17T12:42:39;28.40;99.90
8709;DHT22;4391;48.678;9.280;2023-08-17T12:45:07;28.40;99.90
8709;DHT22;4391;48.678;9.280;2023-08-17T12:47:34;28.50;99.90
8709;DHT22;4391;48.678;9.280;2023-08-17T12:50:01;28.40;99.90
8709;DHT22;4391;48.678;9.280;2023-08-17T12:52:29;28.30;1.00
8709;DHT22;4391;48.678;9.280;2023-08-17T12:54:55;28.10;99.90
8709;DHT22;4391;48.678;9.280;2023-08-17T12:57:24;28.00;15.00
8709;DHT22;4391;48.678;9.280;2023-08-17T12:59:52;27.90;15.00
8709;DHT22;4391;48.678;9.280;2023-08-17T13:02:20;27.70;99.90
8709;DHT22;4391;48.678;9.280;2023-08-17T13:04:47;27.60;17.20
8709;DHT22;4391;48.678;9.280;2023-08-17T13:07:13;27.50;99.90
8709;DHT22;4391;48.678;9.280;2023-08-17T13:09:41;27.30;99.90
8709;DHT22;4391;48.678;9.280;2023-08-17T13:12:09;27.20;99.90
8709;DHT22;4391;48.678;9.280;2023-08-17T13:14:38;27.10;99.90
8709;DHT22;4391;48.678;9.280;2023-08-17T13:17:04;27.00;1.00
8709;DHT22;4391;48.678;9.280;2023-08-17T13:19:31;26.90;1.00
8709;DHT22;4391;48.678;9.280;2023-08-17T13:21:58;26.80;98.20
8709;DHT22;4391;48.678;9.280;2023-08-17T13:24:25;26.70;1.00
8709;DHT22;4391;48.678;9.280;2023-08-17T13:26:51;26.50;1.00
8709;DHT22;4391;48.678;9.280;2023-08-17T13:29:19;26.40;99.90
8709;DHT22;4391;48.678;9.280;2023-08-17T13:31:48;26.40;99.90
8709;DHT22;4391;48.678;9.280;2023-08-17T13:34:15;26.30;1.00
8709;DHT22;4391;48.678;9.280;2023-08-17T13:36:41;26.20;79.50
8709;DHT22;4391;48.678;9.280;2023-08-17T13:39:08;26.10;99.90
8709;DHT22;4391;48.678;9.280;2023-08-17T13:41:35;26.00;99.90
8709;DHT22;4391;48.678;9.280;2023-08-17T13:44:02;26.00;53.40
8709;DHT22;4391;48.678;9.280;2023-08-17T13:46:29;25.90;99.90
8709;DHT22;4391;48.678;9.280;2023-08-17T13:48:58;25.90;99.90
8709;DHT22;4391;48.678;9.280;2023-08-17T13:51:24;25.90;99.90
8709;DHT22;4391;48.678;9.280;2023-08-17T13:53:51;25.90;99.90
8709;DHT22;4391;48.678;9.280;2023-08-17T13:56:18;25.90;99.90
8709;DHT22;4391;48.678;9.280;2023-08-17T13:58:45;25.80;1.00
8709;DHT22;4391;48.678;9.280;2023-08-17T14:01:12;25.70;1.00
8709;DHT22;4391;48.678;9.280;2023-08-17T14:03:39;25.60;1.00
8709;DHT22;4391;48.678;9.280;2023-08-17T14:06:09;25.50;1.00
8709;DHT22;4391;48.678;9.280;2023-08-17T14:08:36;25.40;1.00
8709;DHT22;4391;48.678;9.280;2023-08-17T14:11:04;25.40;1.00
8709;DHT22;4391;48.678;9.280;2023-08-17T14:13:32;25.40;1.00
8709;DHT22;4391;48.678;9.280;2023-08-17T14:15:59;25.30;1.00
8709;DHT22;4391;48.678;9.280;2023-08-17T14:18:26;25.30;1.00
8709;DHT22;4391;48.678;9.280;2023-08-17T14:20:53;25.30;1.00
8709;DHT22;4391;48.678;9.280;2023-08-17T14:23:22;25.40;1.00
8709;DHT22;4391;48.678;9.280;2023-08-17T14:25:49;25.40;1.00
8709;DHT22;4391;48.678;9.280;2023-08-17T14:28:17;25.40;1.00
8709;DHT22;4391;48.678;9.280;2023-08-17T14:30:44;25.40;1.00
8709;DHT22;4391;48.678;9.280;2023-08-17T14:33:11;25.40;1.00
8709;DHT22;4391;48.678;9.280;2023-08-17T14:35:38;25.40;1.00
8709;DHT22;4391;48.678;9.280;2023-08-17T14:38:05;25.40;1.00
8709;DHT22;4391;48.678;9.280;2023-08-17T14:40:35;25.40;1.00
8709;DHT22;4391;48.678;9.280;2023-08-17T14:43:02;25.40;1.00
8709;DHT22;4391;48.678;9.280;2023-08-17T14:45:29;25.40;1.00
8709;DHT22;4391;48.678;9.280;2023-08-17T14:47:56;25.40;1.00
8709;DHT22;4391;48.678;9.280;2023-08-17T14:50:24;25.50;1.00
8709;DHT22;4391;48.678;9.280;2023-08-17T14:52:51;25.50;1.00
8709;DHT22;4391;48.678;9.280;2023-08-17T14:55:18;25.50;1.00
8709;DHT22;4391;48.678;9.280;2023-08-17T14:57:46;25.50;1.00
8709;DHT22;4391;48.678;9.280;2023-08-17T15:00:13;25.60;1.00
8709;DHT22;4391;48.678;9.280;2023-08-17T15:02:40;25.70;1.00
8709;DHT22;4391;48.678;9.280;2023-08-17T15:05:08;25.60;1.00
8709;DHT22;4391;48.678;9.280;2023-08-17T15:07:36;25.70;1.00
8709;DHT22;4391;48.678;9.280;2023-08-17T15:10:03;25.70;1.00
8709;DHT22;4391;48.678;9.280;2023-08-17T15:12:30;25.90;1.00
8709;DHT22;4391;48.678;9.280;2023-08-17T15:14:58;25.90;1.00
8709;DHT22;4391;48.678;9.280;2023-08-17T15:17:25;25.90;99.90
8709;DHT22;4391;48.678;9.280;2023-08-17T15:19:52;26.00;99.90
8709;DHT22;4391;48.678;9.280;2023-08-17T15:22:19;26.00;99.90
8709;DHT22;4391;48.678;9.280;2023-08-17T15:24:46;26.00;99.90
8709;DHT22;4391;48.678;9.280;2023-08-17T15:27:16;26.10;99.90
8709;DHT22;4391;48.678;9.280;2023-08-17T15:29:43;26.00;99.90
8709;DHT22;4391;48.678;9.280;2023-08-17T15:32:11;26.20;99.90
8709;DHT22;4391;48.678;9.280;2023-08-17T15:34:38;26.30;99.90
8709;DHT22;4391;48.678;9.280;2023-08-17T15:37:06;26.30;59.70
8709;DHT22;4391;48.678;9.280;2023-08-17T15:39:33;26.20;99.90
8709;DHT22;4391;48.678;9.280;2023-08-17T15:42:00;26.30;99.90
8709;DHT22;4391;48.678;9.280;2023-08-17T15:44:26;26.10;99.90
8709;DHT22;4391;48.678;9.280;2023-08-17T15:46:55;26.20;99.90
8709;DHT22;4391;48.678;9.280;2023-08-17T15:49:25;26.30;99.90
8709;DHT22;4391;48.678;9.280;2023-08-17T15:51:52;26.20;99.90
8709;DHT22;4391;48.678;9.280;2023-08-17T15:54:19;26.30;99.90
8709;DHT22;4391;48.678;9.280;2023-08-17T15:56:45;26.40;99.90
8709;DHT22;4391;48.678;9.280;2023-08-17T15:59:12;26.50;99.90
8709;DHT22;4391;48.678;9.280;2023-08-17T16:01:39;26.50;1.00
8709;DHT22;4391;48.678;9.280;2023-08-17T16:04:06;26.40;13.40
8709;DHT22;4391;48.678;9.280;2023-08-17T16:06:34;26.30;99.90
8709;DHT22;4391;48.678;9.280;2023-08-17T16:09:01;26.30;99.90